sensor_id;sensor_type;location;lat;lon;timestamp;pressure;altitude;pressure_sealevel;temperature;humidity
43115;BME280;28727;50.068;14.452;2023-01-27T00:01:52;99567.53;;;0.79;80.96
43115;BME280;28727;50.068;14.452;2023-01-27T00:04:27;99570.97;;;0.79;80.97
43115;BME280;28727;50.068;14.452;2023-01-27T00:06:58;99580.44;;;0.80;80.51
43115;BME280;28727;50.068;14.452;2023-01-27T00:09:30;99580.94;;;0.73;80.82
43115;BME280;28727;50.068;14.452;2023-01-27T00:12:02;99570.84;;;0.68;81.28
43115;BME280;28727;50.068;14.452;2023-01-27T00:14:57;99571.28;;;0.75;81.26
43115;BME280;28727;50.068;14.452;2023-01-27T00:17:31;99567.94;;;0.73;80.97
43115;BME280;28727;50.068;14.452;2023-01-27T00:20:04;99566.41;;;0.70;81.12
43115;BME280;28727;50.068;14.452;2023-01-27T00:22:37;99569.28;;;0.66;80.82
43115;BME280;28727;50.068;14.452;2023-01-27T00:25:27;99581.44;;;0.65;80.19
43115;BME280;28727;50.068;14.452;2023-01-27T00:27:59;99569.97;;;0.55;80.89
43115;BME280;28727;50.068;14.452;2023-01-27T00:30:31;99562.94;;;0.57;81.44
43115;BME280;28727;50.068;14.452;2023-01-27T00:33:03;99571.16;;;0.64;81.41
43115;BME280;28727;50.068;14.452;2023-01-27T00:36:04;99577.28;;;0.63;81.16
43115;BME280;28727;50.068;14.452;2023-01-27T00:38:36;99573.00;;;0.62;81.05
43115;BME280;28727;50.068;14.452;2023-01-27T00:41:11;99570.41;;;0.62;80.96
43115;BME280;28727;50.068;14.452;2023-01-27T00:43:50;99562.53;;;0.63;81.14
43115;BME280;28727;50.068;14.452;2023-01-27T00:46:23;99571.78;;;0.67;80.97
43115;BME280;28727;50.068;14.452;2023-01-27T00:48:55;99569.41;;;0.64;80.32
43115;BME280;28727;50.068;14.452;2023-01-27T00:51:27;99577.69;;;0.57;80.32
43115;BME280;28727;50.068;14.452;2023-01-27T00:53:59;99578.84;;;0.53;80.39
43115;BME280;28727;50.068;14.452;2023-01-27T00:56:35;99588.19;;;0.55;80.58
43115;BME280;28727;50.068;14.452;2023-01-27T00:59:11;99582.53;;;0.49;80.38
43115;BME280;28727;50.068;14.452;2023-01-27T01:01:43;99582.94;;;0.43;80.42
43115;BME280;28727;50.068;14.452;2023-01-27T01:04:17;99588.97;;;0.43;80.29
43115;BME280;28727;50.068;14.452;2023-01-27T01:06:50;99590.94;;;0.39;80.41
43115;BME280;28727;50.068;14.452;2023-01-27T01:09:21;99591.97;;;0.37;80.49
43115;BME280;28727;50.068;14.452;2023-01-27T01:11:53;99586.75;;;0.37;80.57
43115;BME280;28727;50.068;14.452;2023-01-27T01:14:25;99586.84;;;0.35;80.51
43115;BME280;28727;50.068;14.452;2023-01-27T01:16:56;99580.09;;;0.33;80.82
43115;BME280;28727;50.068;14.452;2023-01-27T01:19:30;99584.06;;;0.38;80.75
43115;BME280;28727;50.068;14.452;2023-01-27T01:22:01;99589.19;;;0.40;80.78
43115;BME280;28727;50.068;14.452;2023-01-27T01:24:35;99586.28;;;0.45;80.64
43115;BME280;28727;50.068;14.452;2023-01-27T01:27:07;99583.16;;;0.39;80.71
43115;BME280;28727;50.068;14.452;2023-01-27T01:29:41;99587.50;;;0.39;80.80
43115;BME280;28727;50.068;14.452;2023-01-27T01:32:13;99584.59;;;0.44;80.66
43115;BME280;28727;50.068;14.452;2023-01-27T01:34:44;99585.78;;;0.52;80.60
43115;BME280;28727;50.068;14.452;2023-01-27T01:37:16;99584.84;;;0.53;80.31
43115;BME280;28727;50.068;14.452;2023-01-27T01:39:49;99589.53;;;0.61;80.19
43115;BME280;28727;50.068;14.452;2023-01-27T01:42:20;99582.41;;;0.64;79.88
43115;BME280;28727;50.068;14.452;2023-01-27T01:45:58;99584.25;;;0.62;79.66
43115;BME280;28727;50.068;14.452;2023-01-27T01:48:10;99587.28;;;0.69;79.34
43115;BME280;28727;50.068;14.452;2023-01-27T01:50:49;99576.66;;;0.72;79.10
43115;BME280;28727;50.068;14.452;2023-01-27T01:53:24;99580.09;;;0.72;78.75
43115;BME280;28727;50.068;14.452;2023-01-27T01:56:05;99574.88;;;0.60;78.51
43115;BME280;28727;50.068;14.452;2023-01-27T01:58:37;99580.59;;;0.52;78.31
43115;BME280;28727;50.068;14.452;2023-01-27T02:01:10;99572.69;;;0.54;78.47
43115;BME280;28727;50.068;14.452;2023-01-27T02:03:50;99565.44;;;0.59;78.54
43115;BME280;28727;50.068;14.452;2023-01-27T02:06:23;99557.41;;;0.62;78.39
43115;BME280;28727;50.068;14.452;2023-01-27T02:08:55;99560.84;;;0.62;78.24
43115;BME280;28727;50.068;14.452;2023-01-27T02:11:27;99562.09;;;0.57;78.44
43115;BME280;28727;50.068;14.452;2023-01-27T02:14:00;99562.41;;;0.52;78.33
43115;BME280;28727;50.068;14.452;2023-01-27T02:16:32;99559.06;;;0.50;78.51
43115;BME280;28727;50.068;14.452;2023-01-27T02:19:06;99556.47;;;0.50;78.63
43115;BME280;28727;50.068;14.452;2023-01-27T02:21:43;99552.00;;;0.52;78.52
43115;BME280;28727;50.068;14.452;2023-01-27T02:24:15;99559.00;;;0.64;78.50
43115;BME280;28727;50.068;14.452;2023-01-27T02:26:47;99554.22;;;0.58;78.23
43115;BME280;28727;50.068;14.452;2023-01-27T02:29:22;99553.38;;;0.58;78.37
43115;BME280;28727;50.068;14.452;2023-01-27T02:31:54;99547.84;;;0.50;78.30
43115;BME280;28727;50.068;14.452;2023-01-27T02:34:29;99555.00;;;0.46;78.27
43115;BME280;28727;50.068;14.452;2023-01-27T02:37:08;99559.13;;;0.36;78.21
43115;BME280;28727;50.068;14.452;2023-01-27T02:39:43;99558.94;;;0.39;78.59
43115;BME280;28727;50.068;14.452;2023-01-27T02:42:18;99564.53;;;0.33;78.71
43115;BME280;28727;50.068;14.452;2023-01-27T02:44:51;99561.00;;;0.34;78.80
43115;BME280;28727;50.068;14.452;2023-01-27T02:47:23;99564.47;;;0.47;78.92
43115;BME280;28727;50.068;14.452;2023-01-27T02:49:55;99562.28;;;0.54;78.46
43115;BME280;28727;50.068;14.452;2023-01-27T02:52:27;99568.72;;;0.48;77.96
43115;BME280;28727;50.068;14.452;2023-01-27T02:54:59;99561.53;;;0.39;78.52
43115;BME280;28727;50.068;14.452;2023-01-27T02:57:30;99557.66;;;0.32;78.15
43115;BME280;28727;50.068;14.452;2023-01-27T03:00:22;99554.97;;;0.33;78.30
43115;BME280;28727;50.068;14.452;2023-01-27T03:02:56;99561.72;;;0.36;78.21
43115;BME280;28727;50.068;14.452;2023-01-27T03:05:28;99558.19;;;0.37;78.26
43115;BME280;28727;50.068;14.452;2023-01-27T03:08:00;99553.34;;;0.45;78.47
43115;BME280;28727;50.068;14.452;2023-01-27T03:10:32;99550.53;;;0.48;78.06
43115;BME280;28727;50.068;14.452;2023-01-27T03:13:04;99555.63;;;0.50;78.06
43115;BME280;28727;50.068;14.452;2023-01-27T03:15:35;99549.59;;;0.49;77.93
43115;BME280;28727;50.068;14.452;2023-01-27T03:18:26;99553.97;;;0.49;77.84
43115;BME280;28727;50.068;14.452;2023-01-27T03:21:04;99548.44;;;0.53;77.92
43115;BME280;28727;50.068;14.452;2023-01-27T03:23:36;99536.19;;;0.55;77.57
43115;BME280;28727;50.068;14.452;2023-01-27T03:26:09;99538.19;;;0.52;77.89
43115;BME280;28727;50.068;14.452;2023-01-27T03:28:44;99544.84;;;0.56;77.93
43115;BME280;28727;50.068;14.452;2023-01-27T03:31:38;99542.53;;;0.51;77.82
43115;BME280;28727;50.068;14.452;2023-01-27T03:34:11;99541.72;;;0.51;77.93
43115;BME280;28727;50.068;14.452;2023-01-27T03:36:55;99556.25;;;0.53;77.64
43115;BME280;28727;50.068;14.452;2023-01-27T03:39:46;99555.84;;;0.47;77.75
43115;BME280;28727;50.068;14.452;2023-01-27T03:42:37;99559.16;;;0.49;77.47
43115;BME280;28727;50.068;14.452;2023-01-27T03:45:30;99558.84;;;0.40;77.46
43115;BME280;28727;50.068;14.452;2023-01-27T03:48:21;99561.09;;;0.32;77.48
43115;BME280;28727;50.068;14.452;2023-01-27T03:50:58;99557.97;;;0.27;77.70
43115;BME280;28727;50.068;14.452;2023-01-27T03:53:29;99564.91;;;0.27;77.96
43115;BME280;28727;50.068;14.452;2023-01-27T03:56:02;99567.50;;;0.27;77.67
43115;BME280;28727;50.068;14.452;2023-01-27T03:58:35;99554.84;;;0.22;77.90
43115;BME280;28727;50.068;14.452;2023-01-27T04:01:16;99560.88;;;0.23;77.89
43115;BME280;28727;50.068;14.452;2023-01-27T04:03:49;99561.69;;;0.23;77.74
43115;BME280;28727;50.068;14.452;2023-01-27T04:06:43;99565.22;;;0.22;78.03
43115;BME280;28727;50.068;14.452;2023-01-27T04:09:26;99552.13;;;0.24;77.95
43115;BME280;28727;50.068;14.452;2023-01-27T04:12:00;99558.44;;;0.20;77.93
43115;BME280;28727;50.068;14.452;2023-01-27T04:14:34;99556.91;;;0.17;78.40
43115;BME280;28727;50.068;14.452;2023-01-27T04:17:12;99549.91;;;0.18;78.45
43115;BME280;28727;50.068;14.452;2023-01-27T04:19:45;99555.00;;;0.19;78.46
43115;BME280;28727;50.068;14.452;2023-01-27T04:22:18;99551.41;;;0.22;78.29
43115;BME280;28727;50.068;14.452;2023-01-27T04:24:49;99557.22;;;0.25;78.52
43115;BME280;28727;50.068;14.452;2023-01-27T04:27:21;99552.56;;;0.30;78.46
43115;BME280;28727;50.068;14.452;2023-01-27T04:29:56;99565.88;;;0.38;78.45
43115;BME280;28727;50.068;14.452;2023-01-27T04:32:28;99557.59;;;0.46;78.07
43115;BME280;28727;50.068;14.452;2023-01-27T04:35:01;99564.69;;;0.30;77.82
43115;BME280;28727;50.068;14.452;2023-01-27T04:37:32;99561.47;;;0.26;78.26
43115;BME280;28727;50.068;14.452;2023-01-27T04:40:05;99569.19;;;0.28;78.43
43115;BME280;28727;50.068;14.452;2023-01-27T04:42:37;99564.81;;;0.28;78.47
43115;BME280;28727;50.068;14.452;2023-01-27T04:45:09;99564.69;;;0.30;78.45
43115;BME280;28727;50.068;14.452;2023-01-27T04:47:41;99564.22;;;0.37;78.00
43115;BME280;28727;50.068;14.452;2023-01-27T04:50:13;99569.91;;;0.30;78.08
43115;BME280;28727;50.068;14.452;2023-01-27T04:52:45;99569.81;;;0.31;78.69
43115;BME280;28727;50.068;14.452;2023-01-27T04:55:18;99584.06;;;0.38;78.55
43115;BME280;28727;50.068;14.452;2023-01-27T04:57:50;99582.75;;;0.46;78.49
43115;BME280;28727;50.068;14.452;2023-01-27T05:00:23;99584.31;;;0.48;78.04
43115;BME280;28727;50.068;14.452;2023-01-27T05:02:55;99595.44;;;0.50;78.01
43115;BME280;28727;50.068;14.452;2023-01-27T05:05:26;99594.50;;;0.51;77.79
43115;BME280;28727;50.068;14.452;2023-01-27T05:08:06;99598.66;;;0.41;77.65
43115;BME280;28727;50.068;14.452;2023-01-27T05:10:39;99597.81;;;0.40;78.16
43115;BME280;28727;50.068;14.452;2023-01-27T05:13:13;99600.81;;;0.34;77.99
43115;BME280;28727;50.068;14.452;2023-01-27T05:15:45;99604.13;;;0.36;77.87
43115;BME280;28727;50.068;14.452;2023-01-27T05:18:17;99610.34;;;0.34;77.82
43115;BME280;28727;50.068;14.452;2023-01-27T05:20:48;99607.94;;;0.31;77.82
43115;BME280;28727;50.068;14.452;2023-01-27T05:23:22;99618.63;;;0.26;78.00
43115;BME280;28727;50.068;14.452;2023-01-27T05:26:20;99616.47;;;0.33;77.79
43115;BME280;28727;50.068;14.452;2023-01-27T05:28:54;99623.91;;;0.25;77.81
43115;BME280;28727;50.068;14.452;2023-01-27T05:31:28;99614.66;;;0.21;77.90
43115;BME280;28727;50.068;14.452;2023-01-27T05:34:02;99623.66;;;0.15;78.06
43115;BME280;28727;50.068;14.452;2023-01-27T05:36:34;99622.38;;;0.22;78.32
43115;BME280;28727;50.068;14.452;2023-01-27T05:39:05;99623.53;;;0.31;78.35
43115;BME280;28727;50.068;14.452;2023-01-27T05:41:39;99622.59;;;0.32;78.31
43115;BME280;28727;50.068;14.452;2023-01-27T05:44:11;99626.47;;;0.39;77.96
43115;BME280;28727;50.068;14.452;2023-01-27T05:46:43;99623.88;;;0.39;77.98
43115;BME280;28727;50.068;14.452;2023-01-27T05:49:15;99625.72;;;0.37;78.04
43115;BME280;28727;50.068;14.452;2023-01-27T05:51:47;99634.06;;;0.42;78.14
43115;BME280;28727;50.068;14.452;2023-01-27T05:54:20;99631.47;;;0.42;78.08
43115;BME280;28727;50.068;14.452;2023-01-27T05:56:52;99637.22;;;0.47;77.97
43115;BME280;28727;50.068;14.452;2023-01-27T05:59:25;99633.50;;;0.51;78.02
43115;BME280;28727;50.068;14.452;2023-01-27T06:01:57;99635.25;;;0.51;77.57
43115;BME280;28727;50.068;14.452;2023-01-27T06:04:29;99637.84;;;0.51;77.65
43115;BME280;28727;50.068;14.452;2023-01-27T06:07:02;99636.56;;;0.44;77.35
43115;BME280;28727;50.068;14.452;2023-01-27T06:09:34;99642.81;;;0.41;77.76
43115;BME280;28727;50.068;14.452;2023-01-27T06:12:05;99638.25;;;0.45;77.73
43115;BME280;28727;50.068;14.452;2023-01-27T06:14:38;99646.88;;;0.45;77.30
43115;BME280;28727;50.068;14.452;2023-01-27T06:17:10;99643.53;;;0.43;77.88
43115;BME280;28727;50.068;14.452;2023-01-27T06:19:43;99647.63;;;0.47;77.95
43115;BME280;28727;50.068;14.452;2023-01-27T06:22:14;99651.88;;;0.48;77.75
43115;BME280;28727;50.068;14.452;2023-01-27T06:24:46;99643.34;;;0.46;77.70
43115;BME280;28727;50.068;14.452;2023-01-27T06:27:18;99646.50;;;0.51;77.61
43115;BME280;28727;50.068;14.452;2023-01-27T06:29:50;99649.47;;;0.45;77.20
43115;BME280;28727;50.068;14.452;2023-01-27T06:32:21;99644.66;;;0.39;77.79
43115;BME280;28727;50.068;14.452;2023-01-27T06:34:54;99657.56;;;0.40;77.87
43115;BME280;28727;50.068;14.452;2023-01-27T06:37:29;99647.88;;;0.43;77.78
43115;BME280;28727;50.068;14.452;2023-01-27T06:40:02;99644.28;;;0.45;78.05
43115;BME280;28727;50.068;14.452;2023-01-27T06:42:41;99647.41;;;0.50;78.06
43115;BME280;28727;50.068;14.452;2023-01-27T06:45:12;99648.34;;;0.49;77.69
43115;BME280;28727;50.068;14.452;2023-01-27T06:47:45;99649.38;;;0.47;77.83
43115;BME280;28727;50.068;14.452;2023-01-27T06:50:16;99648.34;;;0.49;77.73
43115;BME280;28727;50.068;14.452;2023-01-27T06:52:49;99648.03;;;0.54;77.41
43115;BME280;28727;50.068;14.452;2023-01-27T06:55:21;99647.63;;;0.47;77.63
43115;BME280;28727;50.068;14.452;2023-01-27T06:57:54;99650.94;;;0.49;77.66
43115;BME280;28727;50.068;14.452;2023-01-27T07:00:26;99645.94;;;0.46;77.79
43115;BME280;28727;50.068;14.452;2023-01-27T07:02:58;99652.81;;;0.47;77.75
43115;BME280;28727;50.068;14.452;2023-01-27T07:05:30;99654.84;;;0.42;77.41
43115;BME280;28727;50.068;14.452;2023-01-27T07:08:02;99654.31;;;0.37;77.64
43115;BME280;28727;50.068;14.452;2023-01-27T07:10:34;99653.47;;;0.36;77.90
43115;BME280;28727;50.068;14.452;2023-01-27T07:13:07;99661.47;;;0.33;78.22
43115;BME280;28727;50.068;14.452;2023-01-27T07:15:39;99657.22;;;0.32;78.34
43115;BME280;28727;50.068;14.452;2023-01-27T07:18:11;99654.31;;;0.37;78.37
43115;BME280;28727;50.068;14.452;2023-01-27T07:20:44;99651.53;;;0.40;78.26
43115;BME280;28727;50.068;14.452;2023-01-27T07:23:16;99659.22;;;0.41;78.07
43115;BME280;28727;50.068;14.452;2023-01-27T07:25:48;99653.84;;;0.45;77.96
43115;BME280;28727;50.068;14.452;2023-01-27T07:28:22;99654.59;;;0.47;77.68
43115;BME280;28727;50.068;14.452;2023-01-27T07:30:54;99667.97;;;0.40;77.71
43115;BME280;28727;50.068;14.452;2023-01-27T07:33:26;99663.78;;;0.38;77.87
43115;BME280;28727;50.068;14.452;2023-01-27T07:35:57;99673.03;;;0.42;77.93
43115;BME280;28727;50.068;14.452;2023-01-27T07:38:29;99667.31;;;0.37;77.72
43115;BME280;28727;50.068;14.452;2023-01-27T07:41:04;99679.47;;;0.36;77.82
43115;BME280;28727;50.068;14.452;2023-01-27T07:43:37;99674.78;;;0.41;77.44
43115;BME280;28727;50.068;14.452;2023-01-27T07:46:11;99678.63;;;0.36;77.29
43115;BME280;28727;50.068;14.452;2023-01-27T07:48:43;99680.69;;;0.31;77.46
43115;BME280;28727;50.068;14.452;2023-01-27T07:51:15;99682.44;;;0.30;77.57
43115;BME280;28727;50.068;14.452;2023-01-27T07:53:47;99675.31;;;0.34;77.81
43115;BME280;28727;50.068;14.452;2023-01-27T07:56:21;99676.78;;;0.38;78.02
43115;BME280;28727;50.068;14.452;2023-01-27T07:58:53;99671.00;;;0.47;77.63
43115;BME280;28727;50.068;14.452;2023-01-27T08:01:25;99673.69;;;0.46;77.62
43115;BME280;28727;50.068;14.452;2023-01-27T08:03:57;99676.91;;;0.49;77.15
43115;BME280;28727;50.068;14.452;2023-01-27T08:06:29;99676.91;;;0.49;77.04
43115;BME280;28727;50.068;14.452;2023-01-27T08:09:05;99671.00;;;0.47;77.16
43115;BME280;28727;50.068;14.452;2023-01-27T08:11:38;99678.81;;;0.47;77.46
43115;BME280;28727;50.068;14.452;2023-01-27T08:14:10;99676.91;;;0.49;77.44
43115;BME280;28727;50.068;14.452;2023-01-27T08:16:41;99681.94;;;0.52;77.12
43115;BME280;28727;50.068;14.452;2023-01-27T08:19:13;99674.78;;;0.56;77.06
43115;BME280;28727;50.068;14.452;2023-01-27T08:21:45;99677.56;;;0.53;76.67
43115;BME280;28727;50.068;14.452;2023-01-27T08:24:19;99672.47;;;0.51;76.99
43115;BME280;28727;50.068;14.452;2023-01-27T08:26:51;99668.75;;;0.55;76.94
43115;BME280;28727;50.068;14.452;2023-01-27T08:29:23;99673.84;;;0.57;76.75
43115;BME280;28727;50.068;14.452;2023-01-27T08:31:57;99680.81;;;0.56;76.56
43115;BME280;28727;50.068;14.452;2023-01-27T08:34:29;99682.88;;;0.51;76.72
43115;BME280;28727;50.068;14.452;2023-01-27T08:37:00;99680.06;;;0.54;76.87
43115;BME280;28727;50.068;14.452;2023-01-27T08:39:38;99675.31;;;0.61;77.14
43115;BME280;28727;50.068;14.452;2023-01-27T08:42:11;99673.47;;;0.63;76.92
43115;BME280;28727;50.068;14.452;2023-01-27T08:44:43;99674.91;;;0.67;76.78
43115;BME280;28727;50.068;14.452;2023-01-27T08:47:15;99668.47;;;0.72;76.51
43115;BME280;28727;50.068;14.452;2023-01-27T08:49:46;99672.84;;;0.72;76.34
43115;BME280;28727;50.068;14.452;2023-01-27T08:52:21;99685.97;;;0.70;76.53
43115;BME280;28727;50.068;14.452;2023-01-27T08:54:56;99670.56;;;0.67;76.48
43115;BME280;28727;50.068;14.452;2023-01-27T08:57:28;99680.78;;;0.70;76.26
43115;BME280;28727;50.068;14.452;2023-01-27T09:00:05;99688.13;;;0.64;76.37
43115;BME280;28727;50.068;14.452;2023-01-27T09:02:37;99690.06;;;0.60;76.11
43115;BME280;28727;50.068;14.452;2023-01-27T09:05:09;99683.59;;;0.53;76.29
43115;BME280;28727;50.068;14.452;2023-01-27T09:07:41;99685.78;;;0.59;76.46
43115;BME280;28727;50.068;14.452;2023-01-27T09:10:16;99686.53;;;0.61;76.38
43115;BME280;28727;50.068;14.452;2023-01-27T09:12:47;99690.72;;;0.64;76.55
43115;BME280;28727;50.068;14.452;2023-01-27T09:15:19;99684.91;;;0.73;76.34
43115;BME280;28727;50.068;14.452;2023-01-27T09:17:51;99681.19;;;0.77;76.07
43115;BME280;28727;50.068;14.452;2023-01-27T09:20:23;99686.38;;;0.77;75.49
43115;BME280;28727;50.068;14.452;2023-01-27T09:22:55;99695.31;;;0.73;75.54
43115;BME280;28727;50.068;14.452;2023-01-27T09:25:27;99701.44;;;0.72;75.59
43115;BME280;28727;50.068;14.452;2023-01-27T09:27:59;99705.41;;;0.77;75.47
43115;BME280;28727;50.068;14.452;2023-01-27T09:30:32;99701.88;;;0.78;75.29
43115;BME280;28727;50.068;14.452;2023-01-27T09:33:05;99708.97;;;0.76;75.50
43115;BME280;28727;50.068;14.452;2023-01-27T09:35:58;99710.53;;;0.79;75.89
43115;BME280;28727;50.068;14.452;2023-01-27T09:38:36;99716.47;;;0.81;75.34
43115;BME280;28727;50.068;14.452;2023-01-27T09:44:49;99730.47;;;0.78;75.37
43115;BME280;28727;50.068;14.452;2023-01-27T09:47:56;99729.25;;;0.84;75.33
43115;BME280;28727;50.068;14.452;2023-01-27T09:56:00;99732.06;;;0.81;74.81
43115;BME280;28727;50.068;14.452;2023-01-27T09:58:54;99724.00;;;0.71;75.17
43115;BME280;28727;50.068;14.452;2023-01-27T10:01:38;99723.28;;;0.69;75.30
43115;BME280;28727;50.068;14.452;2023-01-27T10:04:36;99717.16;;;0.70;75.52
43115;BME280;28727;50.068;14.452;2023-01-27T10:21:55;99722.66;;;0.93;74.80
43115;BME280;28727;50.068;14.452;2023-01-27T10:27:34;99726.72;;;0.97;74.30
43115;BME280;28727;50.068;14.452;2023-01-27T10:30:13;99727.09;;;0.91;73.70
43115;BME280;28727;50.068;14.452;2023-01-27T10:32:55;99725.81;;;0.83;73.92
43115;BME280;28727;50.068;14.452;2023-01-27T10:39:17;99725.81;;;0.83;74.49
43115;BME280;28727;50.068;14.452;2023-01-27T10:47:45;99730.59;;;1.04;74.36
43115;BME280;28727;50.068;14.452;2023-01-27T10:50:56;99729.75;;;1.03;73.94
43115;BME280;28727;50.068;14.452;2023-01-27T10:53:39;99726.94;;;1.06;74.11
43115;BME280;28727;50.068;14.452;2023-01-27T10:59:13;99716.78;;;1.16;73.48
43115;BME280;28727;50.068;14.452;2023-01-27T11:02:19;99709.91;;;1.15;73.78
43115;BME280;28727;50.068;14.452;2023-01-27T11:05:00;99709.69;;;1.18;73.64
43115;BME280;28727;50.068;14.452;2023-01-27T11:07:41;99715.75;;;1.31;73.74
43115;BME280;28727;50.068;14.452;2023-01-27T11:10:17;99711.19;;;1.22;73.33
43115;BME280;28727;50.068;14.452;2023-01-27T11:12:52;99710.25;;;1.23;73.35
43115;BME280;28727;50.068;14.452;2023-01-27T11:15:32;99718.47;;;1.17;73.54
43115;BME280;28727;50.068;14.452;2023-01-27T11:18:12;99721.91;;;1.17;73.51
43115;BME280;28727;50.068;14.452;2023-01-27T11:20:52;99715.84;;;1.17;73.20
43115;BME280;28727;50.068;14.452;2023-01-27T11:23:28;99713.44;;;1.14;73.41
43115;BME280;28727;50.068;14.452;2023-01-27T11:26:28;99713.66;;;1.11;73.60
43115;BME280;28727;50.068;14.452;2023-01-27T11:29:31;99712.06;;;1.08;73.16
43115;BME280;28727;50.068;14.452;2023-01-27T11:35:04;99715.03;;;1.16;73.69
43115;BME280;28727;50.068;14.452;2023-01-27T11:37:40;99699.09;;;1.21;73.20
43115;BME280;28727;50.068;14.452;2023-01-27T11:40:17;99701.69;;;1.21;72.92
43115;BME280;28727;50.068;14.452;2023-01-27T11:42:50;99707.00;;;1.19;73.28
43115;BME280;28727;50.068;14.452;2023-01-27T11:45:23;99698.47;;;1.17;73.54
43115;BME280;28727;50.068;14.452;2023-01-27T11:47:58;99699.19;;;1.19;73.05
43115;BME280;28727;50.068;14.452;2023-01-27T11:50:33;99695.13;;;1.15;73.33
43115;BME280;28727;50.068;14.452;2023-01-27T11:53:24;99700.13;;;1.18;73.41
43115;BME280;28727;50.068;14.452;2023-01-27T11:56:02;99695.66;;;1.20;73.22
43115;BME280;28727;50.068;14.452;2023-01-27T11:58:53;99701.50;;;1.24;73.02
43115;BME280;28727;50.068;14.452;2023-01-27T12:01:42;99703.47;;;1.20;72.93
43115;BME280;28727;50.068;14.452;2023-01-27T12:04:30;99707.00;;;1.19;72.86
43115;BME280;28727;50.068;14.452;2023-01-27T12:07:25;99691.91;;;1.24;72.72
43115;BME280;28727;50.068;14.452;2023-01-27T12:10:02;99696.63;;;1.32;72.76
43115;BME280;28727;50.068;14.452;2023-01-27T12:12:35;99688.63;;;1.35;72.82
43115;BME280;28727;50.068;14.452;2023-01-27T12:15:14;99691.31;;;1.34;72.82
43115;BME280;28727;50.068;14.452;2023-01-27T12:17:50;99695.47;;;1.36;72.82
43115;BME280;28727;50.068;14.452;2023-01-27T12:20:35;99692.59;;;1.41;72.76
43115;BME280;28727;50.068;14.452;2023-01-27T12:25:57;99684.22;;;1.36;72.34
43115;BME280;28727;50.068;14.452;2023-01-27T12:31:09;99693.16;;;1.19;72.22
43115;BME280;28727;50.068;14.452;2023-01-27T12:33:45;99692.13;;;1.21;72.50
43115;BME280;28727;50.068;14.452;2023-01-27T12:36:22;99694.63;;;1.23;72.13
43115;BME280;28727;50.068;14.452;2023-01-27T12:38:58;99702.72;;;1.18;72.62
43115;BME280;28727;50.068;14.452;2023-01-27T12:41:32;99703.78;;;1.16;72.62
43115;BME280;28727;50.068;14.452;2023-01-27T12:44:15;99696.38;;;1.10;72.28
43115;BME280;28727;50.068;14.452;2023-01-27T12:47:18;99694.19;;;1.04;72.94
43115;BME280;28727;50.068;14.452;2023-01-27T12:50:30;99699.81;;;1.10;72.76
43115;BME280;28727;50.068;14.452;2023-01-27T12:53:16;99693.34;;;1.03;72.69
43115;BME280;28727;50.068;14.452;2023-01-27T12:55:53;99690.66;;;1.05;73.18
43115;BME280;28727;50.068;14.452;2023-01-27T13:01:30;99694.41;;;1.13;72.92
43115;BME280;28727;50.068;14.452;2023-01-27T13:04:16;99693.59;;;1.26;72.96
43115;BME280;28727;50.068;14.452;2023-01-27T13:06:53;99691.81;;;1.26;72.70
43115;BME280;28727;50.068;14.452;2023-01-27T13:09:29;99683.06;;;1.14;72.98
43115;BME280;28727;50.068;14.452;2023-01-27T13:12:18;99692.22;;;1.20;73.22
43115;BME280;28727;50.068;14.452;2023-01-27T13:14:53;99692.75;;;1.25;73.29
43115;BME280;28727;50.068;14.452;2023-01-27T13:17:34;99695.03;;;1.17;73.14
43115;BME280;28727;50.068;14.452;2023-01-27T13:22:45;99694.09;;;1.18;73.06
43115;BME280;28727;50.068;14.452;2023-01-27T13:25:27;99691.69;;;1.15;73.26
43115;BME280;28727;50.068;14.452;2023-01-27T13:28:00;99685.66;;;1.14;73.25
43115;BME280;28727;50.068;14.452;2023-01-27T13:30:37;99682.31;;;1.12;73.29
43115;BME280;28727;50.068;14.452;2023-01-27T13:33:42;99681.28;;;1.15;73.85
43115;BME280;28727;50.068;14.452;2023-01-27T13:36:39;99692.31;;;1.18;73.51
43115;BME280;28727;50.068;14.452;2023-01-27T13:39:24;99694.09;;;1.18;73.39
43115;BME280;28727;50.068;14.452;2023-01-27T13:44:38;99696.69;;;1.18;73.72
43115;BME280;28727;50.068;14.452;2023-01-27T13:47:29;99704.00;;;1.26;73.51
43115;BME280;28727;50.068;14.452;2023-01-27T13:50:15;99705.25;;;1.33;73.35
43115;BME280;28727;50.068;14.452;2023-01-27T13:52:52;99702.44;;;1.23;73.24
43115;BME280;28727;50.068;14.452;2023-01-27T13:55:40;99711.28;;;1.20;73.52
43115;BME280;28727;50.068;14.452;2023-01-27T14:01:23;99719.84;;;1.35;73.20
43115;BME280;28727;50.068;14.452;2023-01-27T14:15:35;99721.50;;;1.23;72.81
43115;BME280;28727;50.068;14.452;2023-01-27T14:18:20;99718.91;;;1.23;73.14
43115;BME280;28727;50.068;14.452;2023-01-27T14:23:58;99719.50;;;1.27;73.19
43115;BME280;28727;50.068;14.452;2023-01-27T14:36:17;99721.91;;;1.17;72.61
43115;BME280;28727;50.068;14.452;2023-01-27T14:47:21;99727.28;;;1.14;73.07
43115;BME280;28727;50.068;14.452;2023-01-27T14:52:46;99721.84;;;1.05;73.09
43115;BME280;28727;50.068;14.452;2023-01-27T14:55:45;99721.13;;;1.03;73.13
43115;BME280;28727;50.068;14.452;2023-01-27T14:58:36;99727.16;;;1.03;73.18
43115;BME280;28727;50.068;14.452;2023-01-27T15:01:25;99735.56;;;1.07;72.52
43115;BME280;28727;50.068;14.452;2023-01-27T15:06:46;99727.25;;;1.02;73.18
43115;BME280;28727;50.068;14.452;2023-01-27T15:09:46;99732.44;;;1.02;72.82
43115;BME280;28727;50.068;14.452;2023-01-27T15:12:46;99731.91;;;0.97;72.94
43115;BME280;28727;50.068;14.452;2023-01-27T15:18:15;99735.44;;;0.96;73.54
43115;BME280;28727;50.068;14.452;2023-01-27T15:21:09;99736.19;;;0.98;73.64
43115;BME280;28727;50.068;14.452;2023-01-27T15:26:25;99735.69;;;1.05;73.59
43115;BME280;28727;50.068;14.452;2023-01-27T15:28:59;99732.97;;;1.07;73.42
43115;BME280;28727;50.068;14.452;2023-01-27T15:31:31;99737.25;;;1.08;73.56
43115;BME280;28727;50.068;14.452;2023-01-27T15:36:37;99736.31;;;1.09;73.66